createdAt,value
2022-09-16T00:01:13.886Z,11.16
2022-09-16T00:03:42.717Z,11.15
2022-09-16T00:06:20.339Z,11.21
2022-09-16T00:08:48.824Z,11.14
2022-09-16T00:11:17.665Z,11.22
2022-09-16T00:13:46.596Z,11.21
2022-09-16T00:16:19.334Z,11.13
2022-09-16T00:18:48.124Z,11.07
2022-09-16T00:21:17.759Z,11.27
2022-09-16T00:23:45.908Z,11.23
2022-09-16T00:26:14.165Z,11.30
2022-09-16T00:28:42.355Z,11.23
2022-09-16T00:31:10.926Z,11.13
2022-09-16T00:33:39.107Z,11.10
2022-09-16T00:36:09.377Z,11.14
2022-09-16T00:38:39.243Z,11.21
2022-09-16T00:41:07.807Z,11.31
2022-09-16T00:43:49.999Z,11.24
2022-09-16T00:46:22.130Z,11.18
2022-09-16T00:48:51.167Z,11.14
2022-09-16T00:51:21.941Z,11.13
2022-09-16T00:53:57.352Z,11.19
2022-09-16T00:56:28.283Z,11.22
2022-09-16T00:59:03.248Z,11.25
2022-09-16T01:01:33.338Z,11.29
2022-09-16T01:04:07.268Z,11.17
2022-09-16T01:06:40.066Z,11.29
2022-09-16T01:09:09.992Z,11.27
2022-09-16T01:11:38.271Z,11.20
2022-09-16T01:14:24.475Z,11.38
2022-09-16T01:16:59.247Z,11.43
2022-09-16T01:19:44.849Z,11.40
2022-09-16T01:22:29.043Z,11.41
2022-09-16T01:25:08.791Z,11.27
2022-09-16T01:28:08.459Z,11.26
2022-09-16T01:30:46.023Z,11.22
2022-09-16T01:33:22.148Z,11.39
2022-09-16T01:36:08.333Z,11.18
2022-09-16T01:38:56.563Z,11.07
2022-09-16T01:41:35.502Z,11.08
2022-09-16T01:44:12.584Z,10.98
2022-09-16T01:46:49.209Z,10.82
2022-09-16T01:49:23.516Z,10.84
2022-09-16T01:52:01.648Z,10.72
2022-09-16T01:54:38.865Z,10.72
2022-09-16T01:57:11.573Z,10.75
2022-09-16T01:59:45.252Z,10.67
2022-09-16T02:02:20.769Z,10.74
2022-09-16T02:04:52.619Z,10.66
2022-09-16T02:07:24.374Z,10.52
2022-09-16T02:09:57.978Z,10.51
2022-09-16T02:12:30.499Z,10.52
2022-09-16T02:15:03.620Z,10.71
2022-09-16T02:17:37.100Z,10.57
2022-09-16T02:20:09.731Z,10.66
2022-09-16T02:22:40.989Z,10.60
2022-09-16T02:25:12.166Z,10.35
2022-09-16T02:27:43.090Z,10.45
2022-09-16T02:30:15.971Z,10.39
2022-09-16T02:32:49.989Z,10.43
2022-09-16T02:35:20.555Z,10.47
2022-09-16T02:37:52.466Z,10.29
2022-09-16T02:40:25.548Z,10.36
2022-09-16T02:42:54.294Z,10.22
2022-09-16T02:45:26.928Z,10.24
2022-09-16T02:48:04.186Z,10.37
2022-09-16T02:50:42.529Z,10.28
2022-09-16T02:53:20.241Z,10.18
2022-09-16T02:55:55.008Z,10.22
2022-09-16T02:58:23.566Z,10.17
2022-09-16T03:00:55.122Z,10.19
2022-09-16T03:03:24.738Z,10.10
2022-09-16T03:06:16.550Z,10.28
2022-09-16T03:08:46.051Z,10.25
2022-09-16T03:11:29.376Z,10.26
2022-09-16T03:14:13.182Z,10.25
2022-09-16T03:16:52.870Z,10.18
2022-09-16T03:19:28.928Z,10.12
2022-09-16T03:22:03.645Z,10.20
2022-09-16T03:24:43.541Z,10.06
2022-09-16T03:27:17.368Z,10.10
2022-09-16T03:29:52.123Z,10.08
2022-09-16T03:32:24.002Z,10.02
2022-09-16T03:34:56.683Z,10.02
2022-09-16T03:37:28.700Z,10.13
2022-09-16T03:40:00.976Z,10.23
2022-09-16T03:42:29.189Z,10.14
2022-09-16T03:44:57.339Z,10.21
2022-09-16T03:47:25.508Z,10.34
2022-09-16T03:49:55.282Z,10.34
2022-09-16T03:52:23.751Z,10.57
2022-09-16T03:54:51.908Z,10.63
2022-09-16T03:57:20.031Z,10.65
2022-09-16T03:59:48.168Z,10.86
2022-09-16T04:02:16.360Z,10.79
2022-09-16T04:04:44.514Z,10.75
2022-09-16T04:07:14.011Z,10.59
2022-09-16T04:09:42.516Z,10.63
2022-09-16T04:12:10.786Z,10.54
2022-09-16T04:14:39.321Z,10.72
2022-09-16T04:17:07.503Z,10.72
2022-09-16T04:19:35.687Z,10.76
2022-09-16T04:22:03.963Z,10.84
2022-09-16T04:24:33.474Z,10.71
2022-09-16T04:27:01.607Z,10.66
2022-09-16T04:29:29.728Z,10.58
2022-09-16T04:31:58.273Z,10.72
2022-09-16T04:34:26.877Z,10.67
2022-09-16T04:36:55.005Z,10.64
2022-09-16T04:39:23.158Z,10.71
2022-09-16T04:41:52.647Z,10.58
2022-09-16T04:44:20.838Z,10.67
2022-09-16T04:46:48.965Z,10.70
2022-09-16T04:49:17.478Z,10.77
2022-09-16T04:51:45.800Z,10.86
2022-09-16T04:54:13.939Z,10.95
2022-09-16T04:56:42.068Z,10.87
2022-09-16T04:59:11.796Z,10.90
2022-09-16T05:01:40.716Z,11.05
2022-09-16T05:04:09.236Z,11.09
2022-09-16T05:06:39.439Z,11.11
2022-09-16T05:09:08.509Z,11.18
2022-09-16T05:11:38.801Z,11.10
2022-09-16T05:14:08.922Z,11.02
2022-09-16T05:16:38.711Z,11.01
2022-09-16T05:19:06.894Z,10.93
2022-09-16T05:21:37.076Z,11.10
2022-09-16T05:24:08.540Z,11.21
2022-09-16T05:26:38.356Z,11.24
2022-09-16T05:29:08.624Z,11.18
2022-09-16T05:31:40.104Z,11.21
2022-09-16T05:34:13.371Z,11.21
2022-09-16T05:36:43.790Z,11.12
2022-09-16T05:39:28.454Z,11.25
2022-09-16T05:41:58.603Z,11.31
2022-09-16T05:44:27.682Z,11.44
2022-09-16T05:46:57.771Z,11.29
2022-09-16T05:49:26.159Z,11.31
2022-09-16T05:51:54.660Z,11.40
2022-09-16T05:54:25.147Z,11.32
2022-09-16T05:56:53.773Z,11.52
2022-09-16T05:59:23.541Z,11.72
2022-09-16T06:01:52.061Z,11.87
2022-09-16T06:04:21.672Z,11.85
2022-09-16T06:06:49.952Z,11.91
2022-09-16T06:09:23.596Z,11.96
2022-09-16T06:11:59.410Z,12.17
2022-09-16T06:14:30.538Z,12.11
2022-09-16T06:16:59.326Z,11.98
2022-09-16T06:19:28.961Z,11.92
2022-09-16T06:21:57.118Z,11.99
2022-09-16T06:24:25.476Z,11.97
2022-09-16T06:26:53.588Z,12.10
2022-09-16T06:29:22.050Z,12.26
2022-09-16T06:31:50.207Z,12.11
2022-09-16T06:34:19.353Z,12.12
2022-09-16T06:36:48.831Z,12.50
2022-09-16T06:39:18.167Z,12.50
2022-09-16T06:41:46.803Z,12.61
2022-09-16T06:44:14.958Z,12.55
2022-09-16T06:46:44.186Z,12.55
2022-09-16T06:49:13.119Z,12.80
2022-09-16T06:51:41.570Z,12.98
2022-09-16T06:54:11.618Z,13.13
2022-09-16T06:56:41.451Z,13.01
2022-09-16T06:59:11.010Z,12.87
2022-09-16T07:01:39.399Z,12.87
2022-09-16T07:04:10.502Z,12.97
2022-09-16T07:09:29.101Z,12.94
2022-09-16T07:11:59.238Z,13.20
2022-09-16T07:14:27.713Z,13.16
2022-09-16T07:16:56.472Z,13.19
2022-09-16T07:19:25.312Z,13.45
2022-09-16T07:21:53.534Z,13.36
2022-09-16T07:24:21.678Z,13.08
2022-09-16T07:26:51.457Z,13.13
2022-09-16T07:29:20.507Z,13.28
2022-09-16T07:31:49.109Z,13.26
2022-09-16T07:34:17.440Z,13.18
2022-09-16T07:36:48.972Z,13.39
2022-09-16T07:39:18.778Z,14.02
2022-09-16T07:41:49.027Z,14.31
2022-09-16T07:44:20.165Z,14.16
2022-09-16T07:46:51.000Z,14.31
2022-09-16T07:49:19.219Z,13.90
2022-09-16T07:51:47.372Z,14.02
2022-09-16T07:54:17.270Z,13.99
2022-09-16T07:56:46.260Z,14.12
2022-09-16T07:59:18.422Z,14.34
2022-09-16T08:01:50.020Z,14.33
2022-09-16T08:04:19.641Z,14.45
2022-09-16T08:06:47.940Z,14.72
2022-09-16T08:12:07.855Z,14.84
2022-09-16T08:14:36.303Z,14.81
2022-09-16T08:17:05.974Z,14.04
2022-09-16T08:19:34.751Z,14.12
2022-09-16T08:22:02.938Z,14.24
2022-09-16T08:24:31.316Z,14.29
2022-09-16T08:26:59.591Z,14.64
2022-09-16T08:29:27.865Z,15.10
2022-09-16T08:31:56.272Z,14.83
2022-09-16T08:34:25.859Z,15.03
2022-09-16T08:36:53.995Z,14.92
2022-09-16T08:39:22.570Z,15.15
2022-09-16T08:42:19.831Z,15.17
2022-09-16T08:45:00.323Z,15.40
2022-09-16T08:47:43.136Z,15.69
2022-09-16T08:50:17.181Z,15.92
2022-09-16T08:52:46.914Z,15.93
2022-09-16T08:55:19.876Z,15.63
2022-09-16T08:57:55.700Z,15.75
2022-09-16T09:00:23.988Z,15.39
2022-09-16T09:02:55.660Z,14.88
2022-09-16T09:05:35.458Z,14.79
2022-09-16T09:08:19.732Z,15.00
2022-09-16T09:10:51.388Z,14.91
2022-09-16T09:13:34.351Z,14.76
2022-09-16T09:16:13.516Z,14.58
2022-09-16T09:18:48.746Z,14.66
2022-09-16T09:21:27.482Z,14.70
2022-09-16T09:24:19.879Z,14.74
2022-09-16T09:26:50.921Z,14.75
2022-09-16T09:29:38.674Z,15.16
2022-09-16T09:32:18.048Z,15.51
2022-09-16T09:35:00.851Z,15.96
2022-09-16T09:37:43.171Z,16.06
2022-09-16T09:40:18.326Z,16.17
2022-09-16T09:42:51.294Z,16.33
2022-09-16T09:45:24.248Z,16.71
2022-09-16T09:47:57.123Z,16.13
2022-09-16T09:50:30.823Z,15.91
2022-09-16T09:53:13.407Z,15.31
2022-09-16T09:55:42.932Z,15.41
2022-09-16T09:58:29.410Z,15.50
2022-09-16T10:00:57.692Z,15.78
2022-09-16T10:03:27.545Z,16.02
2022-09-16T10:05:55.721Z,16.12
2022-09-16T10:08:30.630Z,16.41
2022-09-16T10:11:01.605Z,16.31
2022-09-16T10:13:32.064Z,16.49
2022-09-16T10:16:15.223Z,16.48
2022-09-16T10:18:43.682Z,16.44
2022-09-16T10:21:14.417Z,16.38
2022-09-16T10:23:55.473Z,16.63
2022-09-16T10:26:25.966Z,16.29
2022-09-16T10:28:56.617Z,16.08
2022-09-16T10:31:32.047Z,16.08
2022-09-16T10:34:04.266Z,16.01
2022-09-16T10:36:35.506Z,15.83
2022-09-16T10:39:06.104Z,15.65
2022-09-16T10:41:36.391Z,15.36
2022-09-16T10:44:08.386Z,15.62
2022-09-16T10:46:36.719Z,15.96
2022-09-16T10:49:11.914Z,15.89
2022-09-16T10:51:40.046Z,16.06
2022-09-16T10:54:25.711Z,16.40
2022-09-16T10:56:53.836Z,17.02
2022-09-16T10:59:22.234Z,17.22
2022-09-16T11:02:01.364Z,16.67
2022-09-16T11:04:54.743Z,16.63
2022-09-16T11:07:34.729Z,17.14
2022-09-16T11:10:14.792Z,17.77
2022-09-16T11:13:06.006Z,17.98
2022-09-16T11:15:50.506Z,17.00
2022-09-16T11:18:31.876Z,16.67
2022-09-16T11:21:15.453Z,16.29
2022-09-16T11:24:03.506Z,16.06
2022-09-16T11:26:44.480Z,16.15
2022-09-16T11:29:28.010Z,16.41
2022-09-16T11:32:04.216Z,16.68
2022-09-16T11:34:52.992Z,16.23
2022-09-16T11:37:29.013Z,16.30
2022-09-16T11:40:17.097Z,16.85
2022-09-16T11:42:53.526Z,17.11
2022-09-16T11:45:36.621Z,17.07
2022-09-16T11:48:23.049Z,17.26
2022-09-16T11:50:59.064Z,17.25
2022-09-16T11:53:42.868Z,16.57
2022-09-16T11:56:16.417Z,16.57
2022-09-16T11:58:51.038Z,16.97
2022-09-16T12:01:37.661Z,17.21
2022-09-16T12:04:12.142Z,17.23
2022-09-16T12:06:48.147Z,16.82
2022-09-16T12:09:24.191Z,16.34
2022-09-16T12:11:56.266Z,16.50
2022-09-16T12:14:32.398Z,15.86
2022-09-16T12:17:06.115Z,15.90
2022-09-16T12:19:38.816Z,15.80
2022-09-16T12:22:10.754Z,16.06
2022-09-16T12:24:44.523Z,16.36
2022-09-16T12:27:25.316Z,17.01
2022-09-16T12:30:00.875Z,17.32
2022-09-16T12:32:36.983Z,17.42
2022-09-16T12:35:14.424Z,17.21
2022-09-16T12:37:48.098Z,17.16
2022-09-16T12:40:23.592Z,17.31
2022-09-16T12:43:26.880Z,17.45
2022-09-16T12:46:43.123Z,17.40
2022-09-16T12:49:42.110Z,17.53
2022-09-16T12:52:34.140Z,17.44
2022-09-16T12:55:37.247Z,17.42
2022-09-16T12:58:21.814Z,17.47
2022-09-16T13:00:56.570Z,17.48
2022-09-16T13:03:28.728Z,17.32
2022-09-16T13:06:01.500Z,17.54
2022-09-16T13:08:32.449Z,17.54
2022-09-16T13:13:54.344Z,17.49
2022-09-16T13:16:33.389Z,17.54
2022-09-16T13:19:35.206Z,17.68
2022-09-16T13:22:16.225Z,17.65
2022-09-16T13:24:48.336Z,17.79
2022-09-16T13:27:27.104Z,17.67
2022-09-16T13:30:13.420Z,17.59
2022-09-16T13:32:44.926Z,17.60
2022-09-16T13:35:36.184Z,17.63
2022-09-16T13:38:23.948Z,17.41
2022-09-16T13:41:00.119Z,17.27
2022-09-16T13:43:33.300Z,17.16
2022-09-16T13:46:04.505Z,17.24
2022-09-16T13:48:38.938Z,17.13
2022-09-16T13:51:21.227Z,17.06
2022-09-16T13:53:53.324Z,17.17
2022-09-16T13:56:38.398Z,17.18
2022-09-16T13:59:19.302Z,17.14
2022-09-16T14:02:00.100Z,17.07
2022-09-16T14:04:42.363Z,17.01
2022-09-16T14:07:23.579Z,17.09
2022-09-16T14:10:00.848Z,17.19
2022-09-16T14:12:39.136Z,17.21
2022-09-16T14:15:09.263Z,17.49
2022-09-16T14:17:41.410Z,17.56
2022-09-16T14:20:17.058Z,17.63
2022-09-16T14:22:45.945Z,17.77
2022-09-16T14:25:30.150Z,17.77
2022-09-16T14:28:16.270Z,17.58
2022-09-16T14:30:49.985Z,17.32
2022-09-16T14:33:22.721Z,17.56
2022-09-16T14:35:53.512Z,17.50
2022-09-16T14:38:44.344Z,17.57
2022-09-16T14:41:20.442Z,17.73
2022-09-16T14:43:48.824Z,17.96
2022-09-16T14:46:17.404Z,17.96
2022-09-16T14:48:46.060Z,17.84
2022-09-16T14:51:22.187Z,17.64
2022-09-16T14:54:13.875Z,17.60
2022-09-16T14:56:43.401Z,17.37
2022-09-16T14:59:13.988Z,17.60
2022-09-16T15:01:42.818Z,17.74
2022-09-16T15:04:19.195Z,17.63
2022-09-16T15:06:53.151Z,17.40
2022-09-16T15:09:29.432Z,17.40
2022-09-16T15:12:00.717Z,17.45
2022-09-16T15:14:29.126Z,17.46
2022-09-16T15:17:01.019Z,17.44
2022-09-16T15:19:32.981Z,17.18
2022-09-16T15:22:01.315Z,17.01
2022-09-16T15:24:33.339Z,17.11
2022-09-16T15:27:03.742Z,16.92
2022-09-16T15:29:35.213Z,16.72
2022-09-16T15:32:19.494Z,16.78
2022-09-16T15:34:48.084Z,16.86
2022-09-16T15:37:40.416Z,17.60
2022-09-16T15:40:10.613Z,17.60
2022-09-16T15:42:40.141Z,17.26
2022-09-16T15:45:17.795Z,16.99
2022-09-16T15:47:57.188Z,16.69
2022-09-16T15:50:28.986Z,16.48
2022-09-16T15:53:02.519Z,16.36
2022-09-16T15:55:36.263Z,16.13
2022-09-16T15:58:11.833Z,16.40
2022-09-16T16:01:00.284Z,16.36
2022-09-16T16:03:32.869Z,16.30
2022-09-16T16:06:04.894Z,16.28
2022-09-16T16:08:44.973Z,16.08
2022-09-16T16:11:15.001Z,15.84
2022-09-16T16:13:44.999Z,16.03
2022-09-16T16:16:15.380Z,16.05
2022-09-16T16:18:45.299Z,15.94
2022-09-16T16:21:15.657Z,15.87
2022-09-16T16:23:44.549Z,16.03
2022-09-16T16:26:12.956Z,16.34
2022-09-16T16:28:41.307Z,16.48
2022-09-16T16:31:16.186Z,16.47
2022-09-16T16:33:46.234Z,16.38
2022-09-16T16:36:15.954Z,16.21
2022-09-16T16:38:45.542Z,16.19
2022-09-16T16:41:13.869Z,15.90
2022-09-16T16:43:42.047Z,15.97
2022-09-16T16:46:10.209Z,15.79
2022-09-16T16:48:40.091Z,15.49
2022-09-16T16:51:11.149Z,15.51
2022-09-16T16:53:39.752Z,15.33
2022-09-16T16:56:14.510Z,15.11
2022-09-16T16:58:44.035Z,14.98
2022-09-16T17:01:15.078Z,14.93
2022-09-16T17:03:46.358Z,14.81
2022-09-16T17:06:14.881Z,14.80
2022-09-16T17:08:43.191Z,14.75
2022-09-16T17:11:13.251Z,14.71
2022-09-16T17:13:43.524Z,14.47
2022-09-16T17:16:14.020Z,14.31
2022-09-16T17:18:44.482Z,14.13
2022-09-16T17:21:15.088Z,13.92
2022-09-16T17:23:43.647Z,13.76
2022-09-16T17:26:12.810Z,13.51
2022-09-16T17:28:42.819Z,13.57
2022-09-16T17:31:11.850Z,13.49
2022-09-16T17:33:40.035Z,13.47
2022-09-16T17:36:11.363Z,13.53
2022-09-16T17:38:39.524Z,13.57
2022-09-16T17:41:09.282Z,13.32
2022-09-16T17:43:38.145Z,13.41
2022-09-16T17:46:08.679Z,13.57
2022-09-16T17:48:38.017Z,13.53
2022-09-16T17:51:06.551Z,13.55
2022-09-16T17:53:36.835Z,13.90
2022-09-16T17:56:07.142Z,13.85
2022-09-16T17:58:36.904Z,14.01
2022-09-16T18:01:07.369Z,14.00
2022-09-16T18:03:36.629Z,14.06
2022-09-16T18:06:10.526Z,14.28
2022-09-16T18:08:40.876Z,14.26
2022-09-16T18:11:10.627Z,14.19
2022-09-16T18:13:39.852Z,14.20
2022-09-16T18:16:10.714Z,13.85
2022-09-16T18:18:40.959Z,14.11
2022-09-16T18:21:11.438Z,14.02
2022-09-16T18:23:41.133Z,13.81
2022-09-16T18:26:10.907Z,13.89
2022-09-16T18:29:05.314Z,13.87
2022-09-16T18:31:28.647Z,13.88
2022-09-16T18:33:57.122Z,13.82
2022-09-16T18:36:27.270Z,13.65
2022-09-16T18:38:58.293Z,13.54
2022-09-16T18:41:28.126Z,13.32
2022-09-16T18:43:57.830Z,13.44
2022-09-16T18:46:28.928Z,13.37
2022-09-16T18:48:59.025Z,13.30
2022-09-16T18:51:29.248Z,13.40
2022-09-16T18:54:02.108Z,13.52
2022-09-16T18:56:32.373Z,13.38
2022-09-16T18:59:22.506Z,13.34
2022-09-16T19:01:51.896Z,13.30
2022-09-16T19:04:22.931Z,13.36
2022-09-16T19:06:56.336Z,13.30
2022-09-16T19:09:25.897Z,13.02
2022-09-16T19:11:54.572Z,12.89
2022-09-16T19:14:24.717Z,12.81
2022-09-16T19:16:53.881Z,12.95
2022-09-16T19:19:23.131Z,12.91
2022-09-16T19:21:51.345Z,12.92
2022-09-16T19:24:22.210Z,12.91
2022-09-16T19:26:54.034Z,12.90
2022-09-16T19:29:22.772Z,12.85
2022-09-16T19:31:52.934Z,12.85
2022-09-16T19:34:22.072Z,12.73
2022-09-16T19:36:50.733Z,12.62
2022-09-16T19:39:19.245Z,12.59
2022-09-16T19:41:47.379Z,12.47
2022-09-16T19:44:18.415Z,12.53
2022-09-16T19:46:49.235Z,12.46
2022-09-16T19:49:20.776Z,12.50
2022-09-16T19:51:49.615Z,12.63
2022-09-16T19:54:18.616Z,12.77
2022-09-16T19:56:50.349Z,12.90
2022-09-16T19:59:21.096Z,12.82
2022-09-16T20:01:50.067Z,12.81
2022-09-16T20:04:21.132Z,12.64
2022-09-16T20:06:49.853Z,12.92
2022-09-16T20:09:18.203Z,12.91
2022-09-16T20:11:47.944Z,13.03
2022-09-16T20:14:19.083Z,13.07
2022-09-16T20:16:49.736Z,12.94
2022-09-16T20:19:19.939Z,12.92
2022-09-16T20:21:48.905Z,12.99
2022-09-16T20:24:19.237Z,12.95
2022-09-16T20:26:48.177Z,13.16
2022-09-16T20:29:17.318Z,13.12
2022-09-16T20:31:46.231Z,13.16
2022-09-16T20:34:16.604Z,13.03
2022-09-16T20:36:46.102Z,12.96
2022-09-16T20:39:15.102Z,12.90
2022-09-16T20:41:45.520Z,12.76
2022-09-16T20:44:15.673Z,12.30
2022-09-16T20:46:44.274Z,11.97
2022-09-16T20:49:17.081Z,11.74
2022-09-16T20:51:46.051Z,11.59
2022-09-16T20:54:16.572Z,11.53
2022-09-16T20:56:47.833Z,11.45
2022-09-16T20:59:17.941Z,11.39
2022-09-16T21:01:48.344Z,11.41
2022-09-16T21:04:19.292Z,11.54
2022-09-16T21:06:47.463Z,11.52
2022-09-16T21:09:18.324Z,11.51
2022-09-16T21:11:46.786Z,11.41
2022-09-16T21:14:16.900Z,11.32
2022-09-16T21:16:46.915Z,11.44
2022-09-16T21:19:16.182Z,11.00
2022-09-16T21:21:47.602Z,11.01
2022-09-16T21:24:16.793Z,10.88
2022-09-16T21:26:46.142Z,10.72
2022-09-16T21:29:16.005Z,10.61
2022-09-16T21:31:44.800Z,10.51
2022-09-16T21:34:15.182Z,10.58
2022-09-16T21:36:46.131Z,10.50
2022-09-16T21:39:15.566Z,10.46
2022-09-16T21:41:44.433Z,10.41
2022-09-16T21:44:13.534Z,10.40
2022-09-16T21:46:45.163Z,10.43
2022-09-16T21:49:22.230Z,10.30
2022-09-16T21:51:52.643Z,10.31
2022-09-16T21:54:21.759Z,10.12
2022-09-16T21:56:51.360Z,10.24
2022-09-16T21:59:20.327Z,10.26
2022-09-16T22:01:49.539Z,10.10
2022-09-16T22:04:20.564Z,10.00
2022-09-16T22:06:49.754Z,9.98
2022-09-16T22:09:19.380Z,9.99
2022-09-16T22:11:47.825Z,9.92
2022-09-16T22:14:16.389Z,9.97
2022-09-16T22:16:44.568Z,10.00
2022-09-16T22:19:15.796Z,9.90
2022-09-16T22:21:46.053Z,9.91
2022-09-16T22:24:16.204Z,10.05
2022-09-16T22:26:45.723Z,10.02
2022-09-16T22:29:14.218Z,9.89
2022-09-16T22:31:42.905Z,9.89
2022-09-16T22:34:11.370Z,9.93
2022-09-16T22:36:40.253Z,9.96
2022-09-16T22:39:12.472Z,9.90
2022-09-16T22:41:40.679Z,10.04
2022-09-16T22:44:10.708Z,10.12
2022-09-16T22:46:41.791Z,9.98
2022-09-16T22:49:10.373Z,10.11
2022-09-16T22:51:39.017Z,10.05
2022-09-16T22:54:07.614Z,10.10
2022-09-16T22:56:36.185Z,10.09
2022-09-16T22:59:08.487Z,10.26
2022-09-16T23:01:40.472Z,10.26
2022-09-16T23:04:10.513Z,10.24
2022-09-16T23:06:40.115Z,10.29
2022-09-16T23:09:09.552Z,10.31
2022-09-16T23:11:37.971Z,10.36
2022-09-16T23:14:06.506Z,10.24
2022-09-16T23:16:37.180Z,10.33
2022-09-16T23:19:09.296Z,10.46
2022-09-16T23:21:38.699Z,10.44
2022-09-16T23:24:09.245Z,10.48
2022-09-16T23:26:39.066Z,10.47
2022-09-16T23:29:09.385Z,10.43
2022-09-16T23:31:40.478Z,10.51
2022-09-16T23:34:13.515Z,10.53
2022-09-16T23:36:42.363Z,10.63
2022-09-16T23:39:14.348Z,10.63
2022-09-16T23:41:43.600Z,10.70
2022-09-16T23:44:14.442Z,10.76
2022-09-16T23:46:43.121Z,10.69
2022-09-16T23:49:13.293Z,10.61
2022-09-16T23:51:41.484Z,10.75
2022-09-16T23:54:09.793Z,10.75
2022-09-16T23:56:37.952Z,10.88
2022-09-16T23:59:06.095Z,10.78
